You are listening to:
CYYZ Arrival - Toronto, Ontario, Canada

CYYZ 151800Z 17003KT 12SM -SHRA FEW010 BKN055 OVC080 16/12 A3015 RMK CF1SC5AC2 SLP213 DENSITY ALT 600FT

If stream does not start automatically press the play button